createdAt,value
2023-03-12T00:00:31.975Z,2.82
2023-03-12T00:01:31.968Z,18.35
2023-03-12T00:02:32.011Z,323.29
2023-03-12T00:03:32.007Z,0
2023-03-12T00:04:31.982Z,348.71
2023-03-12T00:05:31.975Z,358.59
2023-03-12T00:06:31.978Z,309.18
2023-03-12T00:07:31.972Z,360
2023-03-12T00:08:31.974Z,338.82
2023-03-12T00:09:31.988Z,328.94
2023-03-12T00:10:31.990Z,5.65
2023-03-12T00:11:31.995Z,324.71
2023-03-12T00:12:31.975Z,360
2023-03-12T00:13:31.974Z,317.65
2023-03-12T00:14:31.974Z,324.71
2023-03-12T00:15:31.983Z,331.76
2023-03-12T00:16:31.985Z,334.59
2023-03-12T00:17:32.032Z,352.94
2023-03-12T00:18:31.982Z,360
2023-03-12T00:19:31.963Z,292.24
2023-03-12T00:20:31.986Z,312
2023-03-12T00:21:31.982Z,334.59
2023-03-12T00:22:31.988Z,319.06
2023-03-12T00:23:31.987Z,330.35
2023-03-12T00:24:31.992Z,25.41
2023-03-12T00:25:31.981Z,345.88
2023-03-12T00:26:31.997Z,331.76
2023-03-12T00:27:32.007Z,321.88
2023-03-12T00:28:31.978Z,313.41
2023-03-12T00:29:31.974Z,11.29
2023-03-12T00:30:31.976Z,28.24
2023-03-12T00:31:32.004Z,28.24
2023-03-12T00:32:32.104Z,28.24
2023-03-12T00:33:31.986Z,28.24
2023-03-12T00:34:31.980Z,28.24
2023-03-12T00:35:31.997Z,28.24
2023-03-12T00:36:32.016Z,28.24
2023-03-12T00:37:31.985Z,28.24
2023-03-12T00:38:31.984Z,28.24
2023-03-12T00:39:31.999Z,28.24
2023-03-12T00:40:31.977Z,28.24
2023-03-12T00:41:31.986Z,28.24
2023-03-12T00:42:31.975Z,28.24
2023-03-12T00:43:32.024Z,28.24
2023-03-12T00:44:31.973Z,28.24
2023-03-12T00:45:31.982Z,28.24
2023-03-12T00:46:32.036Z,28.24
2023-03-12T00:47:31.970Z,28.24
2023-03-12T00:48:31.978Z,28.24
2023-03-12T00:49:31.991Z,28.24
2023-03-12T00:50:31.997Z,28.24
2023-03-12T00:51:32.005Z,28.24
2023-03-12T00:52:31.999Z,28.24
2023-03-12T00:53:31.986Z,16.94
2023-03-12T00:54:31.983Z,32.47
2023-03-12T00:55:31.991Z,33.88
2023-03-12T00:56:31.996Z,33.88
2023-03-12T00:57:31.997Z,341.65
2023-03-12T00:58:31.978Z,53.65
2023-03-12T00:59:32.015Z,22.59
2023-03-12T01:00:32.080Z,35.29
2023-03-12T01:01:31.992Z,35.29
2023-03-12T01:02:31.999Z,35.29
2023-03-12T01:03:31.995Z,331.76
2023-03-12T01:04:31.996Z,331.76
2023-03-12T01:05:33.513Z,331.76
2023-03-12T01:06:32.009Z,331.76
2023-03-12T01:07:32.018Z,331.76
2023-03-12T01:08:32.008Z,331.76
2023-03-12T01:09:31.997Z,331.76
2023-03-12T01:10:32.004Z,331.76
2023-03-12T01:11:32.000Z,331.76
2023-03-12T01:12:32.017Z,331.76
2023-03-12T01:13:32.038Z,331.76
2023-03-12T01:14:32.005Z,331.76
2023-03-12T01:15:32.037Z,331.76
2023-03-12T01:16:32.197Z,331.76
2023-03-12T01:17:32.027Z,331.76
2023-03-12T01:18:32.010Z,225.88
2023-03-12T01:19:32.012Z,225.88
2023-03-12T01:20:32.016Z,225.88
2023-03-12T01:21:32.023Z,225.88
2023-03-12T01:22:32.036Z,225.88
2023-03-12T01:23:32.022Z,225.88
2023-03-12T01:24:32.031Z,225.88
2023-03-12T01:25:32.042Z,225.88
2023-03-12T01:26:32.023Z,225.88
2023-03-12T01:27:32.034Z,225.88
2023-03-12T01:28:32.028Z,225.88
2023-03-12T01:29:32.047Z,225.88
2023-03-12T01:30:32.026Z,225.88
2023-03-12T01:31:32.082Z,225.88
2023-03-12T01:32:32.049Z,225.88
2023-03-12T01:33:32.039Z,225.88
2023-03-12T01:34:32.027Z,225.88
2023-03-12T01:35:32.099Z,225.88
2023-03-12T01:36:32.156Z,225.88
2023-03-12T01:37:32.037Z,225.88
2023-03-12T01:38:32.037Z,225.88
2023-03-12T01:39:32.079Z,225.88
2023-03-12T01:40:32.052Z,225.88
2023-03-12T01:41:32.042Z,225.88
2023-03-12T01:42:32.065Z,225.88
2023-03-12T01:43:32.044Z,225.88
2023-03-12T01:44:32.035Z,225.88
2023-03-12T01:45:32.073Z,225.88
2023-03-12T01:46:32.037Z,225.88
2023-03-12T01:47:32.066Z,225.88
2023-03-12T01:48:32.048Z,225.88
2023-03-12T01:49:32.039Z,225.88
2023-03-12T01:50:32.031Z,225.88
2023-03-12T01:51:32.033Z,225.88
2023-03-12T01:52:32.044Z,225.88
2023-03-12T01:53:32.038Z,225.88
2023-03-12T01:54:32.048Z,225.88
2023-03-12T01:55:32.040Z,225.88
2023-03-12T01:56:32.041Z,225.88
2023-03-12T01:57:32.047Z,225.88
2023-03-12T01:58:32.043Z,225.88
2023-03-12T01:59:32.052Z,225.88
2023-03-12T02:00:32.045Z,225.88
2023-03-12T02:01:32.114Z,225.88
2023-03-12T02:02:32.052Z,225.88
2023-03-12T02:03:32.101Z,225.88
2023-03-12T02:04:32.056Z,225.88
2023-03-12T02:05:32.058Z,225.88
2023-03-12T02:06:32.043Z,225.88
2023-03-12T02:07:32.055Z,225.88
2023-03-12T02:08:32.062Z,225.88
2023-03-12T02:09:32.055Z,225.88
2023-03-12T02:10:32.054Z,225.88
2023-03-12T02:11:32.069Z,225.88
2023-03-12T02:12:32.063Z,225.88
2023-03-12T02:13:32.051Z,225.88
2023-03-12T02:14:32.053Z,225.88
2023-03-12T02:15:32.057Z,225.88
2023-03-12T02:16:32.090Z,225.88
2023-03-12T02:17:32.066Z,225.88
2023-03-12T02:18:32.057Z,225.88
2023-03-12T02:19:32.165Z,225.88
2023-03-12T02:20:32.057Z,225.88
2023-03-12T02:21:32.053Z,225.88
2023-03-12T02:22:32.085Z,225.88
2023-03-12T02:23:32.056Z,225.88
2023-03-12T02:24:32.053Z,225.88
2023-03-12T02:25:32.063Z,225.88
2023-03-12T02:26:32.059Z,225.88
2023-03-12T02:27:32.057Z,225.88
2023-03-12T02:28:32.059Z,225.88
2023-03-12T02:29:32.062Z,225.88
2023-03-12T02:30:32.073Z,225.88
2023-03-12T02:31:32.116Z,225.88
2023-03-12T02:32:32.121Z,225.88
2023-03-12T02:33:32.066Z,225.88
2023-03-12T02:34:32.072Z,225.88
2023-03-12T02:35:32.120Z,225.88
2023-03-12T02:36:32.056Z,225.88
2023-03-12T02:37:32.055Z,225.88
2023-03-12T02:38:32.061Z,225.88
2023-03-12T02:39:32.060Z,225.88
2023-03-12T02:40:32.066Z,225.88
2023-03-12T02:41:32.081Z,225.88
2023-03-12T02:42:32.069Z,225.88
2023-03-12T02:43:32.073Z,225.88
2023-03-12T02:44:32.066Z,225.88
2023-03-12T02:45:32.062Z,225.88
2023-03-12T02:46:32.070Z,225.88
2023-03-12T02:47:32.993Z,225.88
2023-03-12T02:48:32.082Z,225.88
2023-03-12T02:49:32.104Z,225.88
2023-03-12T02:50:32.082Z,225.88
2023-03-12T02:51:32.121Z,225.88
2023-03-12T02:52:32.090Z,225.88
2023-03-12T02:53:32.090Z,225.88
2023-03-12T02:54:32.092Z,225.88
2023-03-12T02:55:32.089Z,225.88
2023-03-12T02:56:32.089Z,225.88
2023-03-12T02:57:32.093Z,225.88
2023-03-12T02:58:32.111Z,225.88
2023-03-12T02:59:32.101Z,225.88
2023-03-12T03:00:32.116Z,225.88
2023-03-12T03:01:32.148Z,225.88
2023-03-12T03:02:32.118Z,225.88
2023-03-12T03:03:32.129Z,225.88
2023-03-12T03:04:32.211Z,225.88
2023-03-12T03:05:32.120Z,225.88
2023-03-12T03:06:32.110Z,225.88
2023-03-12T03:07:32.162Z,225.88
2023-03-12T03:08:32.123Z,225.88
2023-03-12T03:09:32.127Z,225.88
2023-03-12T03:10:32.123Z,225.88
2023-03-12T03:11:32.135Z,225.88
2023-03-12T03:12:32.144Z,225.88
2023-03-12T03:13:32.158Z,225.88
2023-03-12T03:14:32.133Z,225.88
2023-03-12T03:15:32.177Z,225.88
2023-03-12T03:16:32.144Z,225.88
2023-03-12T03:17:32.153Z,225.88
2023-03-12T03:18:32.141Z,225.88
2023-03-12T03:19:32.152Z,225.88
2023-03-12T03:20:32.171Z,225.88
2023-03-12T03:21:32.151Z,225.88
2023-03-12T03:22:32.206Z,225.88
2023-03-12T03:23:32.200Z,225.88
2023-03-12T03:24:32.163Z,225.88
2023-03-12T03:25:32.167Z,225.88
2023-03-12T03:26:32.174Z,225.88
2023-03-12T03:27:32.162Z,225.88
2023-03-12T03:28:32.172Z,225.88
2023-03-12T03:29:32.189Z,225.88
2023-03-12T03:30:32.188Z,225.88
2023-03-12T03:31:32.189Z,225.88
2023-03-12T03:32:32.186Z,225.88
2023-03-12T03:33:32.172Z,225.88
2023-03-12T03:34:32.171Z,225.88
2023-03-12T03:35:32.193Z,225.88
2023-03-12T03:36:32.194Z,225.88
2023-03-12T03:37:32.178Z,225.88
2023-03-12T03:38:32.195Z,225.88
2023-03-12T03:39:32.230Z,225.88
2023-03-12T03:40:32.187Z,225.88
2023-03-12T03:41:32.188Z,225.88
2023-03-12T03:42:32.186Z,225.88
2023-03-12T03:43:32.190Z,225.88
2023-03-12T03:44:32.194Z,225.88
2023-03-12T03:45:32.197Z,225.88
2023-03-12T03:46:32.283Z,225.88
2023-03-12T03:47:32.204Z,225.88
2023-03-12T03:48:32.202Z,225.88
2023-03-12T03:49:32.193Z,225.88
2023-03-12T03:50:32.215Z,225.88
2023-03-12T03:51:32.192Z,225.88
2023-03-12T03:52:32.186Z,225.88
2023-03-12T03:53:32.232Z,225.88
2023-03-12T03:54:32.202Z,225.88
2023-03-12T03:55:32.230Z,225.88
2023-03-12T03:56:32.197Z,225.88
2023-03-12T03:57:32.213Z,225.88
2023-03-12T03:58:32.199Z,225.88
2023-03-12T03:59:32.224Z,225.88
2023-03-12T04:00:32.207Z,225.88
2023-03-12T04:01:32.229Z,225.88
2023-03-12T04:02:32.213Z,225.88
2023-03-12T04:03:32.248Z,225.88
2023-03-12T04:04:32.214Z,225.88
2023-03-12T04:05:32.298Z,225.88
2023-03-12T04:06:32.242Z,225.88
2023-03-12T04:07:32.243Z,225.88
2023-03-12T04:08:32.224Z,225.88
2023-03-12T04:09:32.234Z,225.88
2023-03-12T04:10:32.229Z,225.88
2023-03-12T04:11:32.251Z,225.88
2023-03-12T04:12:32.243Z,225.88
2023-03-12T04:13:32.224Z,225.88
2023-03-12T04:14:32.229Z,225.88
2023-03-12T04:15:32.256Z,225.88
2023-03-12T04:16:32.255Z,225.88
2023-03-12T04:17:32.236Z,225.88
2023-03-12T04:18:32.236Z,225.88
2023-03-12T04:19:32.237Z,225.88
2023-03-12T04:20:32.230Z,225.88
2023-03-12T04:21:32.234Z,225.88
2023-03-12T04:22:32.252Z,225.88
2023-03-12T04:23:32.246Z,225.88
2023-03-12T04:24:32.237Z,225.88
2023-03-12T04:25:32.287Z,225.88
2023-03-12T04:26:32.309Z,225.88
2023-03-12T04:27:32.278Z,225.88
2023-03-12T04:28:32.260Z,225.88
2023-03-12T04:29:32.248Z,225.88
2023-03-12T04:30:32.249Z,225.88
2023-03-12T04:31:32.301Z,225.88
2023-03-12T04:32:32.325Z,225.88
2023-03-12T04:33:32.283Z,225.88
2023-03-12T04:34:32.264Z,225.88
2023-03-12T04:35:32.301Z,225.88
2023-03-12T04:36:32.269Z,225.88
2023-03-12T04:37:32.313Z,225.88
2023-03-12T04:38:32.284Z,225.88
2023-03-12T04:39:32.273Z,225.88
2023-03-12T04:40:32.284Z,225.88
2023-03-12T04:41:32.280Z,225.88
2023-03-12T04:42:32.282Z,225.88
2023-03-12T04:43:32.331Z,225.88
2023-03-12T04:44:32.279Z,225.88
2023-03-12T04:45:32.268Z,225.88
2023-03-12T04:46:32.352Z,225.88
2023-03-12T04:47:32.291Z,225.88
2023-03-12T04:48:32.295Z,225.88
2023-03-12T04:49:32.291Z,225.88
2023-03-12T04:50:32.311Z,225.88
2023-03-12T04:51:32.303Z,225.88
2023-03-12T04:52:32.296Z,225.88
2023-03-12T04:53:32.399Z,225.88
2023-03-12T04:54:32.320Z,225.88
2023-03-12T04:55:32.307Z,225.88
2023-03-12T04:56:32.347Z,225.88
2023-03-12T04:57:32.308Z,225.88
2023-03-12T04:58:32.324Z,225.88
2023-03-12T04:59:32.337Z,225.88
2023-03-12T05:00:32.317Z,225.88
2023-03-12T05:01:32.308Z,225.88
2023-03-12T05:02:32.343Z,225.88
2023-03-12T05:03:32.368Z,225.88
2023-03-12T05:04:33.673Z,225.88
2023-03-12T05:05:32.329Z,225.88
2023-03-12T05:06:32.332Z,225.88
2023-03-12T05:07:32.329Z,225.88
2023-03-12T05:08:32.317Z,225.88
2023-03-12T05:09:32.336Z,225.88
2023-03-12T05:10:32.335Z,225.88
2023-03-12T05:11:32.329Z,225.88
2023-03-12T05:12:32.325Z,225.88
2023-03-12T05:13:32.331Z,225.88
2023-03-12T05:14:32.337Z,225.88
2023-03-12T05:15:32.347Z,225.88
2023-03-12T05:16:32.340Z,225.88
2023-03-12T05:17:32.325Z,225.88
2023-03-12T05:18:32.333Z,225.88
2023-03-12T05:19:32.349Z,225.88
2023-03-12T05:20:32.345Z,225.88
2023-03-12T05:21:32.331Z,225.88
2023-03-12T05:22:32.344Z,225.88
2023-03-12T05:23:32.343Z,225.88
2023-03-12T05:24:32.348Z,225.88
2023-03-12T05:25:32.343Z,225.88
2023-03-12T05:26:32.340Z,225.88
2023-03-12T05:27:32.345Z,225.88
2023-03-12T05:28:32.353Z,225.88
2023-03-12T05:29:32.349Z,225.88
2023-03-12T05:30:32.361Z,225.88
2023-03-12T05:31:32.438Z,225.88
2023-03-12T05:32:32.428Z,225.88
2023-03-12T05:33:32.373Z,225.88
2023-03-12T05:34:32.355Z,225.88
2023-03-12T05:35:32.445Z,225.88
2023-03-12T05:36:32.361Z,225.88
2023-03-12T05:37:32.354Z,225.88
2023-03-12T05:38:32.363Z,225.88
2023-03-12T05:39:32.359Z,225.88
2023-03-12T05:40:32.379Z,225.88
2023-03-12T05:41:32.359Z,225.88
2023-03-12T05:42:32.358Z,225.88
2023-03-12T05:43:32.368Z,225.88
2023-03-12T05:44:32.374Z,225.88
2023-03-12T05:45:32.422Z,225.88
2023-03-12T05:46:32.368Z,225.88
2023-03-12T05:47:32.494Z,225.88
2023-03-12T05:48:32.375Z,225.88
2023-03-12T05:49:32.379Z,225.88
2023-03-12T05:50:32.362Z,225.88
2023-03-12T05:51:32.368Z,225.88
2023-03-12T05:52:32.381Z,225.88
2023-03-12T05:53:32.371Z,225.88
2023-03-12T05:54:32.372Z,225.88
2023-03-12T05:55:32.361Z,225.88
2023-03-12T05:56:32.442Z,225.88
2023-03-12T05:57:32.381Z,225.88
2023-03-12T05:58:32.364Z,225.88
2023-03-12T05:59:32.369Z,225.88
2023-03-12T06:00:32.379Z,225.88
2023-03-12T06:01:32.367Z,225.88
2023-03-12T06:02:32.440Z,225.88
2023-03-12T06:03:32.448Z,225.88
2023-03-12T06:04:32.374Z,225.88
2023-03-12T06:05:32.387Z,225.88
2023-03-12T06:06:32.370Z,225.88
2023-03-12T06:07:32.385Z,225.88
2023-03-12T06:08:32.379Z,225.88
2023-03-12T06:09:32.386Z,225.88
2023-03-12T06:10:32.401Z,225.88
2023-03-12T06:11:32.376Z,225.88
2023-03-12T06:12:32.404Z,225.88
2023-03-12T06:13:32.378Z,225.88
2023-03-12T06:14:32.398Z,225.88
2023-03-12T06:15:32.391Z,225.88
2023-03-12T06:16:32.421Z,225.88
2023-03-12T06:17:32.421Z,225.88
2023-03-12T06:18:32.399Z,225.88
2023-03-12T06:19:32.412Z,225.88
2023-03-12T06:20:32.395Z,225.88
2023-03-12T06:21:32.396Z,225.88
2023-03-12T06:22:32.404Z,225.88
2023-03-12T06:23:32.401Z,225.88
2023-03-12T06:24:32.400Z,225.88
2023-03-12T06:25:32.403Z,225.88
2023-03-12T06:26:32.398Z,225.88
2023-03-12T06:27:32.405Z,225.88
2023-03-12T06:28:32.396Z,225.88
2023-03-12T06:29:32.413Z,225.88
2023-03-12T06:30:32.402Z,225.88
2023-03-12T06:31:32.509Z,225.88
2023-03-12T06:32:32.472Z,225.88
2023-03-12T06:33:32.387Z,225.88
2023-03-12T06:34:32.420Z,225.88
2023-03-12T06:35:32.804Z,225.88
2023-03-12T06:36:32.398Z,225.88
2023-03-12T06:37:32.426Z,225.88
2023-03-12T06:38:32.403Z,225.88
2023-03-12T06:39:32.409Z,225.88
2023-03-12T06:40:32.411Z,225.88
2023-03-12T06:41:32.411Z,225.88
2023-03-12T06:42:32.418Z,225.88
2023-03-12T06:43:32.402Z,225.88
2023-03-12T06:44:32.414Z,225.88
2023-03-12T06:45:32.409Z,225.88
2023-03-12T06:46:32.437Z,225.88
2023-03-12T06:47:32.403Z,225.88
2023-03-12T06:48:32.415Z,225.88
2023-03-12T06:49:32.401Z,225.88
2023-03-12T06:50:32.415Z,225.88
2023-03-12T06:51:32.431Z,225.88
2023-03-12T06:52:32.427Z,225.88
2023-03-12T06:53:32.413Z,225.88
2023-03-12T06:54:32.407Z,225.88
2023-03-12T06:55:32.430Z,225.88
2023-03-12T06:56:32.425Z,225.88
2023-03-12T06:57:32.424Z,225.88
2023-03-12T06:58:32.447Z,225.88
2023-03-12T06:59:32.423Z,225.88
2023-03-12T07:00:32.434Z,225.88
2023-03-12T07:01:32.421Z,225.88
2023-03-12T07:02:32.480Z,225.88
2023-03-12T07:03:32.429Z,225.88
2023-03-12T07:04:32.423Z,225.88
2023-03-12T07:05:32.428Z,225.88
2023-03-12T07:06:32.487Z,225.88
2023-03-12T07:07:32.457Z,225.88
2023-03-12T07:08:32.435Z,225.88
2023-03-12T07:09:32.425Z,225.88
2023-03-12T07:10:32.426Z,225.88
2023-03-12T07:11:32.428Z,225.88
2023-03-12T07:12:32.438Z,225.88
2023-03-12T07:13:32.435Z,225.88
2023-03-12T07:14:32.423Z,225.88
2023-03-12T07:15:32.434Z,225.88
2023-03-12T07:16:32.479Z,225.88
2023-03-12T07:17:32.440Z,225.88
2023-03-12T07:18:32.442Z,225.88
2023-03-12T07:19:32.452Z,225.88
2023-03-12T07:20:32.442Z,225.88
2023-03-12T07:21:32.433Z,225.88
2023-03-12T07:22:32.432Z,225.88
2023-03-12T07:23:32.455Z,225.88
2023-03-12T07:24:32.448Z,225.88
2023-03-12T07:25:32.439Z,225.88
2023-03-12T07:26:32.430Z,225.88
2023-03-12T07:27:32.432Z,225.88
2023-03-12T07:28:32.444Z,225.88
2023-03-12T07:29:32.445Z,225.88
2023-03-12T07:30:32.435Z,225.88
2023-03-12T07:31:32.496Z,225.88
2023-03-12T07:32:32.469Z,225.88
2023-03-12T07:33:32.541Z,225.88
2023-03-12T07:34:32.597Z,225.88
2023-03-12T07:35:32.519Z,225.88
2023-03-12T07:36:32.650Z,225.88
2023-03-12T07:37:32.442Z,225.88
2023-03-12T07:38:32.519Z,225.88
2023-03-12T07:39:32.489Z,225.88
2023-03-12T07:40:32.432Z,225.88
2023-03-12T07:41:32.456Z,225.88
2023-03-12T07:42:32.505Z,225.88
2023-03-12T07:43:33.064Z,225.88
2023-03-12T07:44:32.440Z,225.88
2023-03-12T07:45:32.478Z,225.88
2023-03-12T07:46:32.471Z,225.88
2023-03-12T07:47:32.620Z,225.88
2023-03-12T07:48:32.439Z,225.88
2023-03-12T07:49:32.439Z,225.88
2023-03-12T07:50:32.446Z,225.88
2023-03-12T07:51:32.446Z,225.88
2023-03-12T07:52:32.509Z,225.88
2023-03-12T07:53:32.439Z,225.88
2023-03-12T07:54:32.456Z,225.88
2023-03-12T07:55:32.515Z,225.88
2023-03-12T07:56:34.376Z,225.88
2023-03-12T07:57:32.549Z,225.88
2023-03-12T07:58:32.597Z,225.88
2023-03-12T07:59:32.448Z,225.88
2023-03-12T08:00:32.502Z,225.88
2023-03-12T08:01:32.604Z,225.88
2023-03-12T08:02:32.598Z,225.88
2023-03-12T08:03:32.589Z,225.88
2023-03-12T08:04:32.569Z,225.88
2023-03-12T08:05:32.505Z,225.88
2023-03-12T08:06:32.453Z,225.88
2023-03-12T08:07:32.630Z,225.88
2023-03-12T08:08:32.539Z,225.88
2023-03-12T08:09:32.463Z,225.88
2023-03-12T08:10:32.606Z,225.88
2023-03-12T08:11:32.474Z,225.88
2023-03-12T08:12:32.476Z,225.88
2023-03-12T08:13:32.471Z,225.88
2023-03-12T08:14:32.518Z,225.88
2023-03-12T08:15:32.471Z,225.88
2023-03-12T08:16:32.505Z,225.88
2023-03-12T08:17:32.459Z,225.88
2023-03-12T08:18:32.469Z,225.88
2023-03-12T08:19:32.462Z,225.88
2023-03-12T08:20:32.470Z,225.88
2023-03-12T08:21:32.469Z,225.88
2023-03-12T08:22:32.467Z,225.88
2023-03-12T08:23:32.476Z,225.88
2023-03-12T08:24:32.512Z,225.88
2023-03-12T08:25:32.486Z,225.88
2023-03-12T08:26:32.471Z,225.88
2023-03-12T08:27:32.496Z,225.88
2023-03-12T08:28:32.481Z,225.88
2023-03-12T08:29:32.491Z,225.88
2023-03-12T08:30:32.480Z,225.88
2023-03-12T08:31:32.574Z,225.88
2023-03-12T08:32:32.611Z,225.88
2023-03-12T08:33:32.478Z,225.88
2023-03-12T08:34:32.499Z,225.88
2023-03-12T08:35:32.503Z,225.88
2023-03-12T08:36:32.470Z,225.88
2023-03-12T08:37:32.512Z,225.88
2023-03-12T08:38:32.525Z,225.88
2023-03-12T08:39:32.481Z,225.88
2023-03-12T08:40:32.504Z,225.88
2023-03-12T08:41:32.486Z,225.88
2023-03-12T08:42:32.549Z,225.88
2023-03-12T08:43:32.514Z,225.88
2023-03-12T08:44:32.510Z,225.88
2023-03-12T08:45:32.565Z,225.88
2023-03-12T08:46:32.486Z,225.88
2023-03-12T08:47:32.488Z,225.88
2023-03-12T08:48:32.506Z,225.88
2023-03-12T08:49:32.485Z,225.88
2023-03-12T08:50:32.493Z,225.88
2023-03-12T08:51:32.503Z,225.88
2023-03-12T08:52:32.493Z,225.88
2023-03-12T08:53:32.501Z,225.88
2023-03-12T08:54:32.496Z,225.88
2023-03-12T08:55:32.502Z,225.88
2023-03-12T08:56:32.492Z,225.88
2023-03-12T08:57:32.521Z,225.88
2023-03-12T08:58:32.510Z,225.88
2023-03-12T08:59:32.522Z,225.88
2023-03-12T09:00:32.579Z,225.88
2023-03-12T09:01:32.502Z,225.88
2023-03-12T09:02:32.519Z,225.88
2023-03-12T09:03:32.590Z,225.88
2023-03-12T09:04:32.561Z,225.88
2023-03-12T09:05:32.502Z,225.88
2023-03-12T09:06:32.497Z,225.88
2023-03-12T09:07:32.508Z,225.88
2023-03-12T09:08:32.506Z,225.88
2023-03-12T09:09:32.509Z,225.88
2023-03-12T09:10:32.532Z,225.88
2023-03-12T09:11:32.500Z,225.88
2023-03-12T09:12:32.525Z,225.88
2023-03-12T09:13:50.684Z,225.88
2023-03-12T09:15:32.537Z,225.88
2023-03-12T09:16:32.538Z,225.88
2023-03-12T09:17:32.535Z,225.88
2023-03-12T09:18:32.495Z,225.88
2023-03-12T09:19:32.561Z,225.88
2023-03-12T09:20:32.518Z,225.88
2023-03-12T09:21:32.505Z,225.88
2023-03-12T09:22:32.499Z,225.88
2023-03-12T09:23:32.504Z,225.88
2023-03-12T09:24:32.521Z,225.88
2023-03-12T09:25:32.493Z,225.88
2023-03-12T09:26:32.511Z,225.88
2023-03-12T09:27:32.500Z,225.88
2023-03-12T09:28:32.513Z,225.88
2023-03-12T09:29:32.561Z,225.88
2023-03-12T09:30:32.667Z,225.88
2023-03-12T09:31:32.572Z,225.88
2023-03-12T09:32:32.554Z,225.88
2023-03-12T09:33:32.505Z,225.88
2023-03-12T09:34:32.508Z,225.88
2023-03-12T09:35:32.552Z,225.88
2023-03-12T09:36:32.563Z,225.88
2023-03-12T09:37:32.504Z,225.88
2023-03-12T09:38:32.521Z,225.88
2023-03-12T09:39:32.507Z,225.88
2023-03-12T09:40:32.503Z,225.88
2023-03-12T09:41:32.511Z,225.88
2023-03-12T09:42:32.502Z,225.88
2023-03-12T09:43:32.497Z,225.88
2023-03-12T09:44:32.542Z,225.88
2023-03-12T09:45:32.556Z,225.88
2023-03-12T09:46:32.597Z,225.88
2023-03-12T09:47:32.532Z,225.88
2023-03-12T09:48:32.505Z,225.88
2023-03-12T09:49:32.528Z,225.88
2023-03-12T09:50:32.509Z,225.88
2023-03-12T09:51:32.506Z,225.88
2023-03-12T09:52:32.519Z,225.88
2023-03-12T09:53:32.520Z,225.88
2023-03-12T09:54:32.510Z,225.88
2023-03-12T09:55:32.507Z,225.88
2023-03-12T09:56:32.551Z,225.88
2023-03-12T09:57:32.509Z,225.88
2023-03-12T09:58:32.526Z,225.88
2023-03-12T09:59:32.510Z,225.88
2023-03-12T10:00:32.510Z,225.88
2023-03-12T10:01:32.522Z,225.88
2023-03-12T10:02:32.592Z,225.88
2023-03-12T10:03:32.626Z,225.88
2023-03-12T10:04:32.538Z,225.88
2023-03-12T10:05:32.502Z,225.88
2023-03-12T10:06:32.553Z,225.88
2023-03-12T10:07:32.508Z,225.88
2023-03-12T10:08:32.513Z,225.88
2023-03-12T10:09:32.542Z,225.88
2023-03-12T10:10:32.513Z,225.88
2023-03-12T10:11:32.531Z,225.88
2023-03-12T10:12:32.504Z,225.88
2023-03-12T10:13:32.527Z,225.88
2023-03-12T10:14:32.539Z,225.88
2023-03-12T10:15:32.684Z,225.88
2023-03-12T10:16:32.509Z,225.88
2023-03-12T10:17:32.527Z,225.88
2023-03-12T10:18:32.645Z,225.88
2023-03-12T10:19:32.559Z,225.88
2023-03-12T10:20:32.540Z,225.88
2023-03-12T10:21:32.522Z,225.88
2023-03-12T10:22:32.520Z,225.88
2023-03-12T10:23:32.526Z,225.88
2023-03-12T10:24:32.599Z,225.88
2023-03-12T10:25:32.556Z,225.88
2023-03-12T10:26:32.530Z,225.88
2023-03-12T10:27:32.536Z,225.88
2023-03-12T10:28:32.552Z,225.88
2023-03-12T10:29:32.546Z,225.88
2023-03-12T10:30:32.541Z,225.88
2023-03-12T10:31:32.557Z,225.88
2023-03-12T10:32:32.573Z,225.88
2023-03-12T10:33:32.539Z,225.88
2023-03-12T10:34:32.525Z,225.88
2023-03-12T10:35:32.651Z,225.88
2023-03-12T10:36:32.528Z,225.88
2023-03-12T10:37:32.558Z,225.88
2023-03-12T10:38:32.533Z,225.88
2023-03-12T10:39:32.544Z,225.88
2023-03-12T10:40:32.547Z,225.88
2023-03-12T10:41:34.710Z,225.88
2023-03-12T10:42:32.553Z,225.88
2023-03-12T10:43:32.553Z,225.88
2023-03-12T10:44:32.555Z,225.88
2023-03-12T10:45:32.570Z,225.88
2023-03-12T10:46:34.415Z,225.88
2023-03-12T10:47:32.610Z,225.88
2023-03-12T10:48:32.546Z,225.88
2023-03-12T10:49:32.571Z,225.88
2023-03-12T10:50:32.553Z,225.88
2023-03-12T10:51:32.622Z,225.88
2023-03-12T10:52:32.554Z,225.88
2023-03-12T10:53:32.574Z,225.88
2023-03-12T10:54:32.552Z,225.88
2023-03-12T10:55:32.559Z,225.88
2023-03-12T10:56:32.563Z,225.88
2023-03-12T10:57:32.566Z,225.88
2023-03-12T10:58:32.570Z,225.88
2023-03-12T10:59:32.555Z,225.88
2023-03-12T11:00:32.590Z,225.88
2023-03-12T11:01:32.612Z,225.88
2023-03-12T11:02:32.563Z,225.88
2023-03-12T11:03:32.566Z,225.88
2023-03-12T11:04:32.655Z,225.88
2023-03-12T11:05:32.616Z,225.88
2023-03-12T11:06:32.582Z,225.88
2023-03-12T11:07:32.601Z,225.88
2023-03-12T11:08:32.594Z,225.88
2023-03-12T11:09:32.625Z,225.88
2023-03-12T11:10:32.571Z,225.88
2023-03-12T11:11:32.610Z,225.88
2023-03-12T11:12:32.589Z,225.88
2023-03-12T11:13:32.615Z,225.88
2023-03-12T11:14:32.629Z,225.88
2023-03-12T11:15:32.577Z,225.88
2023-03-12T11:16:32.620Z,225.88
2023-03-12T11:17:32.637Z,225.88
2023-03-12T11:18:32.588Z,225.88
2023-03-12T11:19:32.593Z,225.88
2023-03-12T11:20:32.584Z,225.88
2023-03-12T11:21:32.583Z,225.88
2023-03-12T11:22:32.596Z,225.88
2023-03-12T11:23:32.629Z,225.88
2023-03-12T11:24:32.589Z,225.88
2023-03-12T11:25:32.599Z,225.88
2023-03-12T11:26:32.589Z,225.88
2023-03-12T11:27:32.646Z,225.88
2023-03-12T11:28:32.680Z,225.88
2023-03-12T11:29:32.592Z,225.88
2023-03-12T11:30:32.737Z,225.88
2023-03-12T11:31:32.725Z,225.88
2023-03-12T11:32:32.646Z,225.88
2023-03-12T11:33:32.595Z,225.88
2023-03-12T11:34:32.648Z,225.88
2023-03-12T11:35:32.678Z,225.88
2023-03-12T11:36:32.598Z,225.88
2023-03-12T11:37:32.622Z,225.88
2023-03-12T11:38:32.594Z,225.88
2023-03-12T11:39:32.620Z,225.88
2023-03-12T11:40:32.597Z,225.88
2023-03-12T11:41:32.611Z,225.88
2023-03-12T11:42:32.599Z,225.88
2023-03-12T11:43:43.080Z,225.88
2023-03-12T11:44:32.605Z,225.88
2023-03-12T11:45:32.592Z,225.88
2023-03-12T11:46:32.715Z,225.88
2023-03-12T11:47:32.672Z,225.88
2023-03-12T11:48:32.621Z,225.88
2023-03-12T11:49:32.606Z,225.88
2023-03-12T11:50:32.604Z,225.88
2023-03-12T11:51:32.654Z,225.88
2023-03-12T11:52:32.614Z,225.88
2023-03-12T11:53:32.610Z,225.88
2023-03-12T11:54:32.654Z,225.88
2023-03-12T11:55:32.626Z,225.88
2023-03-12T11:56:32.620Z,213.18
2023-03-12T11:57:32.613Z,224.47
2023-03-12T11:58:32.611Z,208.94
2023-03-12T11:59:32.610Z,208.94
2023-03-12T12:00:32.680Z,208.94
2023-03-12T12:01:32.609Z,208.94
2023-03-12T12:02:32.613Z,208.94
2023-03-12T12:03:32.701Z,344.47
2023-03-12T12:04:32.616Z,344.47
2023-03-12T12:05:32.629Z,344.47
2023-03-12T12:06:32.627Z,344.47
2023-03-12T12:07:32.631Z,344.47
2023-03-12T12:08:32.622Z,344.47
2023-03-12T12:09:32.623Z,344.47
2023-03-12T12:10:32.613Z,344.47
2023-03-12T12:11:32.643Z,344.47
2023-03-12T12:12:32.625Z,344.47
2023-03-12T12:13:32.621Z,299.29
2023-03-12T12:14:32.615Z,285.18
2023-03-12T12:15:32.621Z,29.65
2023-03-12T12:16:32.671Z,19.76
2023-03-12T12:17:32.624Z,351.53
2023-03-12T12:18:32.614Z,350.12
2023-03-12T12:19:32.630Z,350.12
2023-03-12T12:20:32.663Z,340.24
2023-03-12T12:21:32.630Z,306.35
2023-03-12T12:22:32.618Z,306.35
2023-03-12T12:23:32.638Z,306.35
2023-03-12T12:24:32.629Z,306.35
2023-03-12T12:25:32.632Z,306.35
2023-03-12T12:26:32.620Z,306.35
2023-03-12T12:27:32.661Z,306.35
2023-03-12T12:28:32.636Z,306.35
2023-03-12T12:29:34.899Z,306.35
2023-03-12T12:30:32.620Z,306.35
2023-03-12T12:31:32.710Z,306.35